sensor_id;sensor_type;location;lat;lon;timestamp;P1;durP1;ratioP1;P2;durP2;ratioP2
49824;SDS011;35714;55.708;37.478;2023-07-31T00:00:11;9.65;;;4.40;;
49824;SDS011;35714;55.708;37.478;2023-07-31T00:02:37;11.38;;;4.45;;
49824;SDS011;35714;55.708;37.478;2023-07-31T00:05:04;7.30;;;2.92;;
49824;SDS011;35714;55.708;37.478;2023-07-31T00:07:30;11.30;;;3.55;;
49824;SDS011;35714;55.708;37.478;2023-07-31T00:09:56;8.82;;;3.55;;
49824;SDS011;35714;55.708;37.478;2023-07-31T00:12:22;8.98;;;3.80;;
49824;SDS011;35714;55.708;37.478;2023-07-31T00:14:48;8.43;;;3.03;;
49824;SDS011;35714;55.708;37.478;2023-07-31T00:17:14;7.30;;;3.63;;
49824;SDS011;35714;55.708;37.478;2023-07-31T00:19:40;7.32;;;3.40;;
49824;SDS011;35714;55.708;37.478;2023-07-31T00:22:05;9.82;;;3.42;;
49824;SDS011;35714;55.708;37.478;2023-07-31T00:24:31;7.85;;;3.22;;
49824;SDS011;35714;55.708;37.478;2023-07-31T00:26:57;7.50;;;3.30;;
49824;SDS011;35714;55.708;37.478;2023-07-31T00:29:22;8.43;;;3.47;;
49824;SDS011;35714;55.708;37.478;2023-07-31T00:31:48;6.47;;;3.33;;
49824;SDS011;35714;55.708;37.478;2023-07-31T00:34:14;9.32;;;3.63;;
49824;SDS011;35714;55.708;37.478;2023-07-31T00:36:39;11.18;;;3.88;;
49824;SDS011;35714;55.708;37.478;2023-07-31T00:39:05;6.78;;;3.72;;
49824;SDS011;35714;55.708;37.478;2023-07-31T00:41:31;9.77;;;4.03;;
49824;SDS011;35714;55.708;37.478;2023-07-31T00:43:56;9.77;;;3.92;;
49824;SDS011;35714;55.708;37.478;2023-07-31T00:46:22;13.73;;;5.45;;
49824;SDS011;35714;55.708;37.478;2023-07-31T00:48:48;10.77;;;4.70;;
49824;SDS011;35714;55.708;37.478;2023-07-31T00:51:14;8.88;;;4.00;;
49824;SDS011;35714;55.708;37.478;2023-07-31T00:53:41;11.07;;;4.40;;
49824;SDS011;35714;55.708;37.478;2023-07-31T00:56:07;8.43;;;3.75;;
49824;SDS011;35714;55.708;37.478;2023-07-31T00:58:33;12.27;;;3.90;;
49824;SDS011;35714;55.708;37.478;2023-07-31T01:00:59;10.00;;;3.53;;
49824;SDS011;35714;55.708;37.478;2023-07-31T01:03:25;10.65;;;3.83;;
49824;SDS011;35714;55.708;37.478;2023-07-31T01:11:25;17.10;;;8.73;;
49824;SDS011;35714;55.708;37.478;2023-07-31T01:13:54;18.93;;;9.70;;
49824;SDS011;35714;55.708;37.478;2023-07-31T01:16:20;11.93;;;7.63;;
49824;SDS011;35714;55.708;37.478;2023-07-31T01:18:46;11.25;;;5.70;;
49824;SDS011;35714;55.708;37.478;2023-07-31T01:26:34;8.35;;;4.25;;
49824;SDS011;35714;55.708;37.478;2023-07-31T01:29:06;8.45;;;3.00;;
49824;SDS011;35714;55.708;37.478;2023-07-31T01:31:32;7.55;;;2.83;;
49824;SDS011;35714;55.708;37.478;2023-07-31T01:34:01;6.47;;;3.17;;
49824;SDS011;35714;55.708;37.478;2023-07-31T01:36:28;6.38;;;2.80;;
49824;SDS011;35714;55.708;37.478;2023-07-31T01:38:59;7.00;;;2.60;;
49824;SDS011;35714;55.708;37.478;2023-07-31T01:41:26;6.80;;;3.17;;
49824;SDS011;35714;55.708;37.478;2023-07-31T01:43:51;9.57;;;3.05;;
49824;SDS011;35714;55.708;37.478;2023-07-31T01:46:17;5.35;;;2.72;;
49824;SDS011;35714;55.708;37.478;2023-07-31T01:48:43;5.93;;;3.17;;
49824;SDS011;35714;55.708;37.478;2023-07-31T01:51:08;8.25;;;3.05;;
49824;SDS011;35714;55.708;37.478;2023-07-31T01:53:35;9.43;;;3.53;;
49824;SDS011;35714;55.708;37.478;2023-07-31T01:56:01;6.05;;;3.05;;
49824;SDS011;35714;55.708;37.478;2023-07-31T01:58:29;6.63;;;3.05;;
49824;SDS011;35714;55.708;37.478;2023-07-31T02:00:55;7.57;;;2.67;;
49824;SDS011;35714;55.708;37.478;2023-07-31T02:03:20;5.47;;;2.70;;
49824;SDS011;35714;55.708;37.478;2023-07-31T02:05:47;8.80;;;3.20;;
49824;SDS011;35714;55.708;37.478;2023-07-31T02:08:13;6.53;;;3.28;;
49824;SDS011;35714;55.708;37.478;2023-07-31T02:10:39;6.63;;;3.42;;
49824;SDS011;35714;55.708;37.478;2023-07-31T02:13:05;6.32;;;3.08;;
49824;SDS011;35714;55.708;37.478;2023-07-31T02:15:32;7.25;;;2.78;;
49824;SDS011;35714;55.708;37.478;2023-07-31T02:17:58;6.72;;;3.00;;
49824;SDS011;35714;55.708;37.478;2023-07-31T02:20:24;6.38;;;2.47;;
49824;SDS011;35714;55.708;37.478;2023-07-31T02:22:51;5.63;;;2.92;;
49824;SDS011;35714;55.708;37.478;2023-07-31T02:25:16;4.70;;;2.20;;
49824;SDS011;35714;55.708;37.478;2023-07-31T02:27:44;5.97;;;2.45;;
49824;SDS011;35714;55.708;37.478;2023-07-31T02:30:09;6.43;;;2.20;;
49824;SDS011;35714;55.708;37.478;2023-07-31T02:32:37;7.18;;;2.42;;
49824;SDS011;35714;55.708;37.478;2023-07-31T02:35:03;4.78;;;2.10;;
49824;SDS011;35714;55.708;37.478;2023-07-31T02:37:30;5.28;;;2.55;;
49824;SDS011;35714;55.708;37.478;2023-07-31T02:39:55;6.03;;;2.30;;
49824;SDS011;35714;55.708;37.478;2023-07-31T02:42:21;6.60;;;2.53;;
49824;SDS011;35714;55.708;37.478;2023-07-31T02:44:47;5.18;;;2.35;;
49824;SDS011;35714;55.708;37.478;2023-07-31T02:47:12;5.57;;;2.55;;
49824;SDS011;35714;55.708;37.478;2023-07-31T02:49:38;6.20;;;3.15;;
49824;SDS011;35714;55.708;37.478;2023-07-31T02:52:04;8.38;;;2.90;;
49824;SDS011;35714;55.708;37.478;2023-07-31T02:54:30;11.57;;;2.47;;
49824;SDS011;35714;55.708;37.478;2023-07-31T02:56:55;5.35;;;2.55;;
49824;SDS011;35714;55.708;37.478;2023-07-31T02:59:21;5.18;;;2.70;;
49824;SDS011;35714;55.708;37.478;2023-07-31T03:01:46;11.27;;;3.03;;
49824;SDS011;35714;55.708;37.478;2023-07-31T03:04:12;9.00;;;3.65;;
49824;SDS011;35714;55.708;37.478;2023-07-31T03:06:38;6.20;;;3.40;;
49824;SDS011;35714;55.708;37.478;2023-07-31T03:09:04;6.57;;;2.90;;
49824;SDS011;35714;55.708;37.478;2023-07-31T03:11:30;7.65;;;3.20;;
49824;SDS011;35714;55.708;37.478;2023-07-31T03:13:57;6.07;;;3.17;;
49824;SDS011;35714;55.708;37.478;2023-07-31T03:16:23;5.85;;;2.92;;
49824;SDS011;35714;55.708;37.478;2023-07-31T03:18:48;5.32;;;2.85;;
49824;SDS011;35714;55.708;37.478;2023-07-31T03:21:14;9.15;;;2.47;;
49824;SDS011;35714;55.708;37.478;2023-07-31T03:23:39;7.80;;;3.00;;
49824;SDS011;35714;55.708;37.478;2023-07-31T03:26:06;5.18;;;2.25;;
49824;SDS011;35714;55.708;37.478;2023-07-31T03:28:34;7.03;;;2.70;;
49824;SDS011;35714;55.708;37.478;2023-07-31T03:30:59;5.72;;;2.70;;
49824;SDS011;35714;55.708;37.478;2023-07-31T03:33:25;6.07;;;2.92;;
49824;SDS011;35714;55.708;37.478;2023-07-31T03:35:52;5.35;;;2.72;;
49824;SDS011;35714;55.708;37.478;2023-07-31T03:38:18;9.60;;;2.85;;
49824;SDS011;35714;55.708;37.478;2023-07-31T03:40:44;7.38;;;3.03;;
49824;SDS011;35714;55.708;37.478;2023-07-31T03:43:11;5.05;;;2.28;;
49824;SDS011;35714;55.708;37.478;2023-07-31T03:45:39;5.55;;;2.58;;
49824;SDS011;35714;55.708;37.478;2023-07-31T03:48:05;5.65;;;2.40;;
49824;SDS011;35714;55.708;37.478;2023-07-31T03:50:30;5.38;;;2.38;;
49824;SDS011;35714;55.708;37.478;2023-07-31T03:52:56;8.15;;;2.88;;
49824;SDS011;35714;55.708;37.478;2023-07-31T03:55:22;7.85;;;2.80;;
49824;SDS011;35714;55.708;37.478;2023-07-31T03:57:47;5.43;;;2.40;;
49824;SDS011;35714;55.708;37.478;2023-07-31T04:00:13;6.43;;;2.63;;
49824;SDS011;35714;55.708;37.478;2023-07-31T04:02:41;8.77;;;3.00;;
49824;SDS011;35714;55.708;37.478;2023-07-31T04:05:07;10.68;;;3.20;;
49824;SDS011;35714;55.708;37.478;2023-07-31T04:07:33;4.75;;;2.85;;
49824;SDS011;35714;55.708;37.478;2023-07-31T04:09:59;5.57;;;2.30;;
49824;SDS011;35714;55.708;37.478;2023-07-31T04:12:25;6.85;;;2.72;;
49824;SDS011;35714;55.708;37.478;2023-07-31T04:14:51;6.95;;;3.13;;
49824;SDS011;35714;55.708;37.478;2023-07-31T04:17:17;5.78;;;2.45;;
49824;SDS011;35714;55.708;37.478;2023-07-31T04:19:43;7.20;;;2.42;;
49824;SDS011;35714;55.708;37.478;2023-07-31T04:22:09;6.03;;;2.45;;
49824;SDS011;35714;55.708;37.478;2023-07-31T04:24:35;8.90;;;2.55;;
49824;SDS011;35714;55.708;37.478;2023-07-31T04:27:00;5.43;;;2.47;;
49824;SDS011;35714;55.708;37.478;2023-07-31T04:29:26;6.38;;;2.95;;
49824;SDS011;35714;55.708;37.478;2023-07-31T04:31:52;7.88;;;2.25;;
49824;SDS011;35714;55.708;37.478;2023-07-31T04:34:17;7.28;;;3.03;;
49824;SDS011;35714;55.708;37.478;2023-07-31T04:36:43;7.18;;;2.55;;
49824;SDS011;35714;55.708;37.478;2023-07-31T04:39:09;8.57;;;2.00;;
49824;SDS011;35714;55.708;37.478;2023-07-31T04:41:35;6.00;;;2.47;;
49824;SDS011;35714;55.708;37.478;2023-07-31T04:44:00;9.65;;;2.50;;
49824;SDS011;35714;55.708;37.478;2023-07-31T04:46:27;7.90;;;2.63;;
49824;SDS011;35714;55.708;37.478;2023-07-31T04:48:52;5.50;;;1.77;;
49824;SDS011;35714;55.708;37.478;2023-07-31T04:51:18;5.43;;;1.90;;
49824;SDS011;35714;55.708;37.478;2023-07-31T04:53:43;5.45;;;2.10;;
49824;SDS011;35714;55.708;37.478;2023-07-31T04:56:09;9.25;;;2.05;;
49824;SDS011;35714;55.708;37.478;2023-07-31T04:58:35;5.15;;;2.20;;
49824;SDS011;35714;55.708;37.478;2023-07-31T05:01:00;7.75;;;2.30;;
49824;SDS011;35714;55.708;37.478;2023-07-31T05:03:26;5.78;;;2.53;;
49824;SDS011;35714;55.708;37.478;2023-07-31T05:05:52;7.45;;;2.20;;
49824;SDS011;35714;55.708;37.478;2023-07-31T05:08:18;6.70;;;2.47;;
49824;SDS011;35714;55.708;37.478;2023-07-31T05:10:43;7.75;;;2.92;;
49824;SDS011;35714;55.708;37.478;2023-07-31T05:13:09;6.55;;;2.00;;
49824;SDS011;35714;55.708;37.478;2023-07-31T05:15:35;6.13;;;1.90;;
49824;SDS011;35714;55.708;37.478;2023-07-31T05:18:01;8.60;;;2.55;;
49824;SDS011;35714;55.708;37.478;2023-07-31T05:20:26;9.40;;;2.40;;
49824;SDS011;35714;55.708;37.478;2023-07-31T05:22:53;6.72;;;1.88;;
49824;SDS011;35714;55.708;37.478;2023-07-31T05:25:19;5.32;;;2.00;;
49824;SDS011;35714;55.708;37.478;2023-07-31T05:27:45;7.30;;;2.03;;
49824;SDS011;35714;55.708;37.478;2023-07-31T05:30:10;5.50;;;1.70;;
49824;SDS011;35714;55.708;37.478;2023-07-31T05:32:36;7.22;;;1.95;;
49824;SDS011;35714;55.708;37.478;2023-07-31T05:35:02;7.80;;;2.28;;
49824;SDS011;35714;55.708;37.478;2023-07-31T05:37:30;5.10;;;1.67;;
49824;SDS011;35714;55.708;37.478;2023-07-31T05:39:56;5.63;;;1.60;;
49824;SDS011;35714;55.708;37.478;2023-07-31T05:42:21;4.38;;;1.77;;
49824;SDS011;35714;55.708;37.478;2023-07-31T05:44:47;5.15;;;2.08;;
49824;SDS011;35714;55.708;37.478;2023-07-31T05:47:13;10.48;;;1.75;;
49824;SDS011;35714;55.708;37.478;2023-07-31T05:49:38;5.45;;;1.80;;
49824;SDS011;35714;55.708;37.478;2023-07-31T05:52:04;5.85;;;2.15;;
49824;SDS011;35714;55.708;37.478;2023-07-31T05:54:31;8.55;;;3.67;;
49824;SDS011;35714;55.708;37.478;2023-07-31T05:56:57;9.10;;;2.40;;
49824;SDS011;35714;55.708;37.478;2023-07-31T05:59:22;5.53;;;2.42;;
49824;SDS011;35714;55.708;37.478;2023-07-31T06:01:48;8.63;;;1.70;;
49824;SDS011;35714;55.708;37.478;2023-07-31T06:04:14;5.78;;;1.55;;
49824;SDS011;35714;55.708;37.478;2023-07-31T06:06:39;5.25;;;1.38;;
49824;SDS011;35714;55.708;37.478;2023-07-31T06:09:05;5.65;;;1.67;;
49824;SDS011;35714;55.708;37.478;2023-07-31T06:11:31;3.50;;;1.52;;
49824;SDS011;35714;55.708;37.478;2023-07-31T06:13:56;4.63;;;1.20;;
49824;SDS011;35714;55.708;37.478;2023-07-31T06:16:22;3.88;;;1.38;;
49824;SDS011;35714;55.708;37.478;2023-07-31T06:18:48;3.75;;;1.50;;
49824;SDS011;35714;55.708;37.478;2023-07-31T06:21:14;3.60;;;1.40;;
49824;SDS011;35714;55.708;37.478;2023-07-31T06:23:39;5.63;;;2.78;;
49824;SDS011;35714;55.708;37.478;2023-07-31T06:26:05;3.25;;;1.40;;
49824;SDS011;35714;55.708;37.478;2023-07-31T06:28:31;2.38;;;0.95;;
49824;SDS011;35714;55.708;37.478;2023-07-31T06:30:59;5.38;;;1.25;;
49824;SDS011;35714;55.708;37.478;2023-07-31T06:33:26;4.10;;;1.25;;
49824;SDS011;35714;55.708;37.478;2023-07-31T06:35:52;4.60;;;1.08;;
49824;SDS011;35714;55.708;37.478;2023-07-31T06:38:21;3.35;;;1.10;;
49824;SDS011;35714;55.708;37.478;2023-07-31T06:40:48;3.58;;;0.90;;
49824;SDS011;35714;55.708;37.478;2023-07-31T06:43:14;4.30;;;1.33;;
49824;SDS011;35714;55.708;37.478;2023-07-31T06:45:40;2.28;;;0.93;;
49824;SDS011;35714;55.708;37.478;2023-07-31T06:48:05;4.28;;;1.10;;
49824;SDS011;35714;55.708;37.478;2023-07-31T06:50:31;4.57;;;1.48;;
49824;SDS011;35714;55.708;37.478;2023-07-31T06:52:57;4.60;;;1.10;;
49824;SDS011;35714;55.708;37.478;2023-07-31T06:55:23;4.15;;;1.33;;
49824;SDS011;35714;55.708;37.478;2023-07-31T06:57:50;4.03;;;1.50;;
49824;SDS011;35714;55.708;37.478;2023-07-31T07:00:17;4.50;;;1.80;;
49824;SDS011;35714;55.708;37.478;2023-07-31T07:02:44;3.10;;;1.10;;
49824;SDS011;35714;55.708;37.478;2023-07-31T07:05:10;2.60;;;1.02;;
49824;SDS011;35714;55.708;37.478;2023-07-31T07:07:36;4.93;;;1.83;;
49824;SDS011;35714;55.708;37.478;2023-07-31T07:10:01;6.47;;;2.00;;
49824;SDS011;35714;55.708;37.478;2023-07-31T07:12:31;6.03;;;1.90;;
49824;SDS011;35714;55.708;37.478;2023-07-31T07:14:57;7.07;;;1.25;;
49824;SDS011;35714;55.708;37.478;2023-07-31T07:17:23;3.50;;;1.10;;
49824;SDS011;35714;55.708;37.478;2023-07-31T07:19:49;4.03;;;1.10;;
49824;SDS011;35714;55.708;37.478;2023-07-31T07:22:15;3.25;;;1.20;;
49824;SDS011;35714;55.708;37.478;2023-07-31T07:24:41;3.83;;;0.95;;
49824;SDS011;35714;55.708;37.478;2023-07-31T07:27:07;2.83;;;1.15;;
49824;SDS011;35714;55.708;37.478;2023-07-31T07:29:37;2.95;;;0.90;;
49824;SDS011;35714;55.708;37.478;2023-07-31T07:32:03;2.63;;;1.00;;
49824;SDS011;35714;55.708;37.478;2023-07-31T07:34:30;2.80;;;1.05;;
49824;SDS011;35714;55.708;37.478;2023-07-31T07:36:56;2.38;;;0.90;;
49824;SDS011;35714;55.708;37.478;2023-07-31T07:39:21;3.65;;;1.42;;
49824;SDS011;35714;55.708;37.478;2023-07-31T07:41:47;1.88;;;0.82;;
49824;SDS011;35714;55.708;37.478;2023-07-31T07:44:13;1.85;;;0.73;;
49824;SDS011;35714;55.708;37.478;2023-07-31T07:46:40;3.17;;;0.95;;
49824;SDS011;35714;55.708;37.478;2023-07-31T07:49:06;2.53;;;1.02;;
49824;SDS011;35714;55.708;37.478;2023-07-31T07:51:31;3.08;;;1.00;;
49824;SDS011;35714;55.708;37.478;2023-07-31T07:53:57;2.80;;;1.25;;
49824;SDS011;35714;55.708;37.478;2023-07-31T07:56:23;2.85;;;1.05;;
49824;SDS011;35714;55.708;37.478;2023-07-31T07:58:50;4.57;;;1.20;;
49824;SDS011;35714;55.708;37.478;2023-07-31T08:01:16;2.80;;;0.80;;
49824;SDS011;35714;55.708;37.478;2023-07-31T08:03:42;3.58;;;1.10;;
49824;SDS011;35714;55.708;37.478;2023-07-31T08:06:08;4.85;;;1.30;;
49824;SDS011;35714;55.708;37.478;2023-07-31T08:08:37;9.85;;;2.28;;
49824;SDS011;35714;55.708;37.478;2023-07-31T08:11:03;3.90;;;1.67;;
49824;SDS011;35714;55.708;37.478;2023-07-31T08:13:29;3.05;;;0.93;;
49824;SDS011;35714;55.708;37.478;2023-07-31T08:15:55;3.40;;;1.13;;
49824;SDS011;35714;55.708;37.478;2023-07-31T08:18:21;5.55;;;1.30;;
49824;SDS011;35714;55.708;37.478;2023-07-31T08:20:47;3.30;;;1.10;;
49824;SDS011;35714;55.708;37.478;2023-07-31T08:23:13;3.03;;;1.13;;
49824;SDS011;35714;55.708;37.478;2023-07-31T08:25:39;3.17;;;1.15;;
49824;SDS011;35714;55.708;37.478;2023-07-31T08:28:05;3.20;;;1.10;;
49824;SDS011;35714;55.708;37.478;2023-07-31T08:30:31;3.45;;;1.02;;
49824;SDS011;35714;55.708;37.478;2023-07-31T08:32:58;5.45;;;1.38;;
49824;SDS011;35714;55.708;37.478;2023-07-31T08:35:26;2.80;;;1.33;;
49824;SDS011;35714;55.708;37.478;2023-07-31T08:37:53;2.28;;;0.90;;
49824;SDS011;35714;55.708;37.478;2023-07-31T08:40:20;4.30;;;1.40;;
49824;SDS011;35714;55.708;37.478;2023-07-31T08:42:47;2.83;;;1.20;;
49824;SDS011;35714;55.708;37.478;2023-07-31T08:45:15;2.70;;;1.00;;
49824;SDS011;35714;55.708;37.478;2023-07-31T08:47:45;4.35;;;0.95;;
49824;SDS011;35714;55.708;37.478;2023-07-31T08:50:16;3.90;;;1.30;;
49824;SDS011;35714;55.708;37.478;2023-07-31T08:52:43;4.18;;;1.20;;
49824;SDS011;35714;55.708;37.478;2023-07-31T08:55:10;2.60;;;1.20;;
49824;SDS011;35714;55.708;37.478;2023-07-31T08:57:37;2.50;;;1.33;;
49824;SDS011;35714;55.708;37.478;2023-07-31T09:00:04;4.55;;;1.30;;
49824;SDS011;35714;55.708;37.478;2023-07-31T09:02:40;3.35;;;1.20;;
49824;SDS011;35714;55.708;37.478;2023-07-31T09:05:12;3.67;;;1.30;;
49824;SDS011;35714;55.708;37.478;2023-07-31T09:07:38;3.47;;;1.10;;
49824;SDS011;35714;55.708;37.478;2023-07-31T09:10:04;2.83;;;1.40;;
49824;SDS011;35714;55.708;37.478;2023-07-31T09:12:31;2.17;;;1.00;;
49824;SDS011;35714;55.708;37.478;2023-07-31T09:14:57;2.28;;;0.85;;
49824;SDS011;35714;55.708;37.478;2023-07-31T09:17:30;3.25;;;1.02;;
49824;SDS011;35714;55.708;37.478;2023-07-31T09:19:57;4.72;;;1.52;;
49824;SDS011;35714;55.708;37.478;2023-07-31T09:22:33;2.38;;;1.05;;
49824;SDS011;35714;55.708;37.478;2023-07-31T09:25:19;5.28;;;1.20;;
49824;SDS011;35714;55.708;37.478;2023-07-31T09:27:47;3.35;;;1.13;;
49824;SDS011;35714;55.708;37.478;2023-07-31T09:30:14;2.13;;;1.10;;
49824;SDS011;35714;55.708;37.478;2023-07-31T09:32:40;2.85;;;1.17;;
49824;SDS011;35714;55.708;37.478;2023-07-31T09:38:00;2.72;;;1.30;;
49824;SDS011;35714;55.708;37.478;2023-07-31T09:40:31;2.00;;;1.05;;
49824;SDS011;35714;55.708;37.478;2023-07-31T09:42:59;4.72;;;1.30;;
49824;SDS011;35714;55.708;37.478;2023-07-31T09:45:29;2.30;;;1.10;;
49824;SDS011;35714;55.708;37.478;2023-07-31T09:47:58;2.42;;;1.05;;
49824;SDS011;35714;55.708;37.478;2023-07-31T09:50:24;2.40;;;0.98;;
49824;SDS011;35714;55.708;37.478;2023-07-31T09:52:51;3.38;;;1.17;;
49824;SDS011;35714;55.708;37.478;2023-07-31T09:55:18;3.38;;;1.23;;
49824;SDS011;35714;55.708;37.478;2023-07-31T09:57:46;1.77;;;0.85;;
49824;SDS011;35714;55.708;37.478;2023-07-31T10:00:13;3.58;;;1.35;;
49824;SDS011;35714;55.708;37.478;2023-07-31T10:02:46;4.40;;;1.50;;
49824;SDS011;35714;55.708;37.478;2023-07-31T10:05:14;3.58;;;1.33;;
49824;SDS011;35714;55.708;37.478;2023-07-31T10:07:51;4.05;;;1.33;;
49824;SDS011;35714;55.708;37.478;2023-07-31T10:10:20;3.45;;;1.10;;
49824;SDS011;35714;55.708;37.478;2023-07-31T10:12:48;2.22;;;0.90;;
49824;SDS011;35714;55.708;37.478;2023-07-31T10:15:14;2.60;;;0.93;;
49824;SDS011;35714;55.708;37.478;2023-07-31T10:17:41;2.42;;;1.02;;
49824;SDS011;35714;55.708;37.478;2023-07-31T10:20:07;1.88;;;0.90;;
49824;SDS011;35714;55.708;37.478;2023-07-31T10:22:33;2.42;;;1.20;;
49824;SDS011;35714;55.708;37.478;2023-07-31T10:25:00;4.97;;;1.27;;
49824;SDS011;35714;55.708;37.478;2023-07-31T10:27:26;3.05;;;1.25;;
49824;SDS011;35714;55.708;37.478;2023-07-31T10:29:53;2.45;;;1.08;;
49824;SDS011;35714;55.708;37.478;2023-07-31T10:32:20;3.50;;;1.38;;
49824;SDS011;35714;55.708;37.478;2023-07-31T10:34:48;2.65;;;1.15;;
49824;SDS011;35714;55.708;37.478;2023-07-31T10:37:24;3.38;;;1.23;;
49824;SDS011;35714;55.708;37.478;2023-07-31T10:39:55;4.38;;;1.27;;
49824;SDS011;35714;55.708;37.478;2023-07-31T10:42:28;3.38;;;1.40;;
49824;SDS011;35714;55.708;37.478;2023-07-31T10:44:59;2.50;;;1.05;;
49824;SDS011;35714;55.708;37.478;2023-07-31T10:47:26;2.40;;;1.20;;
49824;SDS011;35714;55.708;37.478;2023-07-31T10:49:51;3.55;;;1.40;;
49824;SDS011;35714;55.708;37.478;2023-07-31T10:52:21;4.13;;;1.33;;
49824;SDS011;35714;55.708;37.478;2023-07-31T10:57:51;3.30;;;1.30;;
49824;SDS011;35714;55.708;37.478;2023-07-31T11:02:55;2.80;;;1.10;;
49824;SDS011;35714;55.708;37.478;2023-07-31T11:05:26;3.70;;;1.40;;
49824;SDS011;35714;55.708;37.478;2023-07-31T11:10:47;2.70;;;1.33;;
49824;SDS011;35714;55.708;37.478;2023-07-31T11:13:14;4.32;;;1.45;;
49824;SDS011;35714;55.708;37.478;2023-07-31T11:15:40;3.05;;;1.40;;
49824;SDS011;35714;55.708;37.478;2023-07-31T11:18:05;2.35;;;1.05;;
49824;SDS011;35714;55.708;37.478;2023-07-31T11:20:34;3.50;;;1.48;;
49824;SDS011;35714;55.708;37.478;2023-07-31T11:23:01;3.22;;;1.20;;
49824;SDS011;35714;55.708;37.478;2023-07-31T11:25:29;4.38;;;1.50;;
49824;SDS011;35714;55.708;37.478;2023-07-31T11:28:02;3.70;;;1.38;;
49824;SDS011;35714;55.708;37.478;2023-07-31T11:30:32;3.15;;;1.20;;
49824;SDS011;35714;55.708;37.478;2023-07-31T11:33:00;2.97;;;1.20;;
49824;SDS011;35714;55.708;37.478;2023-07-31T11:35:29;6.10;;;1.58;;
49824;SDS011;35714;55.708;37.478;2023-07-31T11:37:58;6.78;;;1.60;;
49824;SDS011;35714;55.708;37.478;2023-07-31T11:40:23;3.03;;;1.52;;
49824;SDS011;35714;55.708;37.478;2023-07-31T11:43:03;3.67;;;1.83;;
49824;SDS011;35714;55.708;37.478;2023-07-31T11:45:29;3.75;;;1.25;;
49824;SDS011;35714;55.708;37.478;2023-07-31T11:47:55;2.90;;;1.27;;
49824;SDS011;35714;55.708;37.478;2023-07-31T11:50:23;4.03;;;1.58;;
49824;SDS011;35714;55.708;37.478;2023-07-31T11:52:52;3.95;;;1.50;;
49824;SDS011;35714;55.708;37.478;2023-07-31T11:55:21;4.25;;;1.38;;
49824;SDS011;35714;55.708;37.478;2023-07-31T11:57:48;2.60;;;1.27;;
49824;SDS011;35714;55.708;37.478;2023-07-31T12:00:14;6.20;;;2.13;;
49824;SDS011;35714;55.708;37.478;2023-07-31T12:02:41;5.50;;;1.30;;
49824;SDS011;35714;55.708;37.478;2023-07-31T12:05:11;3.50;;;1.38;;
49824;SDS011;35714;55.708;37.478;2023-07-31T12:07:44;3.47;;;1.05;;
49824;SDS011;35714;55.708;37.478;2023-07-31T12:10:11;4.28;;;1.70;;
49824;SDS011;35714;55.708;37.478;2023-07-31T12:12:55;7.43;;;1.88;;
49824;SDS011;35714;55.708;37.478;2023-07-31T12:15:34;8.05;;;1.77;;
49824;SDS011;35714;55.708;37.478;2023-07-31T12:18:09;4.18;;;1.67;;
49824;SDS011;35714;55.708;37.478;2023-07-31T12:20:43;4.20;;;1.85;;
49824;SDS011;35714;55.708;37.478;2023-07-31T12:23:17;4.30;;;1.40;;
49824;SDS011;35714;55.708;37.478;2023-07-31T12:31:06;4.78;;;1.55;;
49824;SDS011;35714;55.708;37.478;2023-07-31T12:33:34;3.17;;;1.67;;
49824;SDS011;35714;55.708;37.478;2023-07-31T12:36:02;3.10;;;1.33;;
49824;SDS011;35714;55.708;37.478;2023-07-31T12:38:29;4.40;;;1.15;;
49824;SDS011;35714;55.708;37.478;2023-07-31T12:40:55;4.22;;;2.10;;
49824;SDS011;35714;55.708;37.478;2023-07-31T12:43:21;5.93;;;1.63;;
49824;SDS011;35714;55.708;37.478;2023-07-31T12:45:47;4.47;;;1.40;;
49824;SDS011;35714;55.708;37.478;2023-07-31T12:48:13;3.13;;;1.23;;
49824;SDS011;35714;55.708;37.478;2023-07-31T12:50:39;6.43;;;1.55;;
49824;SDS011;35714;55.708;37.478;2023-07-31T12:53:05;4.28;;;1.90;;
49824;SDS011;35714;55.708;37.478;2023-07-31T12:55:31;3.90;;;1.98;;
49824;SDS011;35714;55.708;37.478;2023-07-31T12:57:59;4.75;;;1.70;;
49824;SDS011;35714;55.708;37.478;2023-07-31T13:00:28;4.00;;;1.50;;
49824;SDS011;35714;55.708;37.478;2023-07-31T13:02:54;3.63;;;1.38;;
49824;SDS011;35714;55.708;37.478;2023-07-31T13:05:20;2.97;;;1.52;;
49824;SDS011;35714;55.708;37.478;2023-07-31T13:07:46;5.32;;;1.60;;
49824;SDS011;35714;55.708;37.478;2023-07-31T13:10:12;5.03;;;1.80;;
49824;SDS011;35714;55.708;37.478;2023-07-31T13:12:38;3.03;;;1.48;;
49824;SDS011;35714;55.708;37.478;2023-07-31T13:15:04;3.58;;;1.45;;
49824;SDS011;35714;55.708;37.478;2023-07-31T13:17:31;2.95;;;1.40;;
49824;SDS011;35714;55.708;37.478;2023-07-31T13:19:57;3.42;;;1.35;;
49824;SDS011;35714;55.708;37.478;2023-07-31T13:22:22;3.50;;;1.50;;
49824;SDS011;35714;55.708;37.478;2023-07-31T13:24:48;3.10;;;1.50;;
49824;SDS011;35714;55.708;37.478;2023-07-31T13:27:14;2.90;;;1.42;;
49824;SDS011;35714;55.708;37.478;2023-07-31T13:29:44;3.88;;;1.55;;
49824;SDS011;35714;55.708;37.478;2023-07-31T13:32:10;5.97;;;1.77;;
49824;SDS011;35714;55.708;37.478;2023-07-31T13:34:36;5.25;;;1.85;;
49824;SDS011;35714;55.708;37.478;2023-07-31T13:37:02;2.92;;;1.50;;
49824;SDS011;35714;55.708;37.478;2023-07-31T13:39:28;3.85;;;1.60;;
49824;SDS011;35714;55.708;37.478;2023-07-31T13:41:53;3.28;;;1.35;;
49824;SDS011;35714;55.708;37.478;2023-07-31T13:44:20;4.25;;;1.42;;
49824;SDS011;35714;55.708;37.478;2023-07-31T13:46:45;5.00;;;1.90;;
49824;SDS011;35714;55.708;37.478;2023-07-31T13:49:11;4.28;;;1.83;;
49824;SDS011;35714;55.708;37.478;2023-07-31T13:51:37;3.42;;;1.63;;
49824;SDS011;35714;55.708;37.478;2023-07-31T13:54:04;5.18;;;1.50;;
49824;SDS011;35714;55.708;37.478;2023-07-31T13:56:32;4.03;;;1.60;;
49824;SDS011;35714;55.708;37.478;2023-07-31T13:58:58;3.80;;;1.60;;
49824;SDS011;35714;55.708;37.478;2023-07-31T14:01:23;3.67;;;1.77;;
49824;SDS011;35714;55.708;37.478;2023-07-31T14:03:49;4.00;;;1.48;;
49824;SDS011;35714;55.708;37.478;2023-07-31T14:06:15;6.95;;;1.60;;
49824;SDS011;35714;55.708;37.478;2023-07-31T14:08:40;4.32;;;1.90;;
49824;SDS011;35714;55.708;37.478;2023-07-31T14:11:06;5.47;;;1.67;;
49824;SDS011;35714;55.708;37.478;2023-07-31T14:13:32;4.43;;;1.85;;
49824;SDS011;35714;55.708;37.478;2023-07-31T14:15:57;6.70;;;1.92;;
49824;SDS011;35714;55.708;37.478;2023-07-31T14:18:23;4.03;;;1.83;;
49824;SDS011;35714;55.708;37.478;2023-07-31T14:20:49;5.35;;;1.85;;
49824;SDS011;35714;55.708;37.478;2023-07-31T14:23:15;6.28;;;1.90;;
49824;SDS011;35714;55.708;37.478;2023-07-31T14:25:41;4.43;;;1.60;;
49824;SDS011;35714;55.708;37.478;2023-07-31T14:28:06;6.15;;;1.58;;
49824;SDS011;35714;55.708;37.478;2023-07-31T14:30:32;7.25;;;1.70;;
49824;SDS011;35714;55.708;37.478;2023-07-31T14:32:58;3.50;;;1.42;;
49824;SDS011;35714;55.708;37.478;2023-07-31T14:35:25;5.80;;;1.90;;
49824;SDS011;35714;55.708;37.478;2023-07-31T14:37:51;5.47;;;1.70;;
49824;SDS011;35714;55.708;37.478;2023-07-31T14:40:17;4.38;;;2.35;;
49824;SDS011;35714;55.708;37.478;2023-07-31T14:42:43;3.70;;;1.60;;
49824;SDS011;35714;55.708;37.478;2023-07-31T14:45:09;4.25;;;1.83;;
49824;SDS011;35714;55.708;37.478;2023-07-31T14:47:35;6.35;;;1.85;;
49824;SDS011;35714;55.708;37.478;2023-07-31T14:50:02;6.05;;;1.70;;
49824;SDS011;35714;55.708;37.478;2023-07-31T14:52:28;6.80;;;1.88;;
49824;SDS011;35714;55.708;37.478;2023-07-31T14:54:54;7.25;;;2.17;;
49824;SDS011;35714;55.708;37.478;2023-07-31T14:57:20;8.43;;;2.10;;